Pagina principale
METAR-TAF:

METAR-TAF

Aeroporti :

Aeroporto di Corfù-Giovanni Capodistria

Corfù, Grecia

latitudine: 39-37N, longitudine: 019-55E, altezza: 2 m

Osservazione

Il bollettino è stato emesso 15 minuti fa, alle 22:20 UTC
Vento calmo
Temperature 10°C
Umidità 87%
Pressione 1022 hPa
Visibilità 10 km o più
Poco nuvoloso ad un'altezza di 1800 ft
Nubi sparse ad un'altezza di 2500 ft

METAR: LGKR 212220Z 00000KT 9999 FEW018 SCT025 10/08 Q1022 NOSIG

Ora: 00:35 (22:35 UTC)

Previsione

Il bollettino è stato emesso 5 ore e 35 minuti fa, alle 17:00 UTC
Previsione valida dal 21 alle 18 UTC al 22 alle 18 UTC
Vento 5 kt da direzioni variabili
Visibilità 10 km o più
Nubi sparse ad un'altezza di 2500 ft
Probabilità 30% :
Temporaneamente
dal 22 alle 02 UTC al 22 alle 06 UTC
Visibilità: 5000 m
Nubi sparse ad un'altezza di 1200 ft
foschia,

TAF: LGKR 211700Z 2118/2218 VRB05KT 9999 SCT025 PROB30 TEMPO 2202/2206 5000 BR SCT012

Osservazioni e previsioni meteorologiche di più di 4000 aeroporti (messaggi METAR e TAF).

Le stazioni disponibili sono rappresentate dai dischi gialli e rossi sulla carta.

Puntare il mouse per vedere il nome della stazione.

Clicca sopra per visualizzare le osservazioni e previsioni meteorologiche.

Per cambiare la mappa : fare clic sui pulsanti verdi con una croce nera per ingrandire, il pulsante verde con un trattino per diminuire, o sulla freccia verde per le mappe adiacenti.


METAR-TAF: